METAR Data
IDs: Format: Raw Decoded Include TAF

Data at: 0659 UTC 18 Sep 2021

ZPPP 180600Z 22006MPS 9999 FEW026TCU SCT026 BKN043 23/16 Q1021 NOSIG